sensor_id;sensor_type;location;lat;lon;timestamp;P1;durP1;ratioP1;P2;durP2;ratioP2
9854;SDS011;4966;48.112;9.282;2023-06-22T00:02:13;14.00;;;3.65;;
9854;SDS011;4966;48.112;9.282;2023-06-22T00:04:39;8.93;;;3.10;;
9854;SDS011;4966;48.112;9.282;2023-06-22T00:07:04;5.45;;;2.30;;
9854;SDS011;4966;48.112;9.282;2023-06-22T00:09:30;8.20;;;3.30;;
9854;SDS011;4966;48.112;9.282;2023-06-22T00:11:56;9.50;;;3.05;;
9854;SDS011;4966;48.112;9.282;2023-06-22T00:14:21;17.83;;;3.53;;
9854;SDS011;4966;48.112;9.282;2023-06-22T00:16:47;13.45;;;3.50;;
9854;SDS011;4966;48.112;9.282;2023-06-22T00:19:13;5.95;;;3.00;;
9854;SDS011;4966;48.112;9.282;2023-06-22T00:21:39;8.88;;;3.67;;
9854;SDS011;4966;48.112;9.282;2023-06-22T00:24:04;9.02;;;3.33;;
9854;SDS011;4966;48.112;9.282;2023-06-22T00:26:31;8.65;;;3.70;;
9854;SDS011;4966;48.112;9.282;2023-06-22T00:28:56;13.45;;;3.20;;
9854;SDS011;4966;48.112;9.282;2023-06-22T00:31:21;9.32;;;3.53;;
9854;SDS011;4966;48.112;9.282;2023-06-22T00:33:47;11.40;;;4.07;;
9854;SDS011;4966;48.112;9.282;2023-06-22T00:36:12;10.95;;;3.25;;
9854;SDS011;4966;48.112;9.282;2023-06-22T00:38:41;8.93;;;3.50;;
9854;SDS011;4966;48.112;9.282;2023-06-22T00:41:06;10.77;;;3.47;;
9854;SDS011;4966;48.112;9.282;2023-06-22T00:43:32;9.57;;;3.35;;
9854;SDS011;4966;48.112;9.282;2023-06-22T00:45:57;11.85;;;3.55;;
9854;SDS011;4966;48.112;9.282;2023-06-22T00:48:23;10.02;;;3.42;;
9854;SDS011;4966;48.112;9.282;2023-06-22T00:50:49;8.30;;;3.30;;
9854;SDS011;4966;48.112;9.282;2023-06-22T00:53:16;10.35;;;3.30;;
9854;SDS011;4966;48.112;9.282;2023-06-22T00:55:43;11.20;;;3.20;;
9854;SDS011;4966;48.112;9.282;2023-06-22T00:58:10;11.77;;;3.90;;
9854;SDS011;4966;48.112;9.282;2023-06-22T01:00:36;7.40;;;3.10;;
9854;SDS011;4966;48.112;9.282;2023-06-22T01:03:03;8.40;;;3.13;;
9854;SDS011;4966;48.112;9.282;2023-06-22T01:05:29;12.05;;;3.45;;
9854;SDS011;4966;48.112;9.282;2023-06-22T01:08:02;10.88;;;3.45;;
9854;SDS011;4966;48.112;9.282;2023-06-22T01:13:12;10.20;;;3.28;;
9854;SDS011;4966;48.112;9.282;2023-06-22T01:16:03;13.55;;;3.42;;
9854;SDS011;4966;48.112;9.282;2023-06-22T01:18:32;13.90;;;3.60;;
9854;SDS011;4966;48.112;9.282;2023-06-22T01:21:01;9.55;;;3.75;;
9854;SDS011;4966;48.112;9.282;2023-06-22T01:23:36;8.32;;;3.58;;
9854;SDS011;4966;48.112;9.282;2023-06-22T01:26:19;11.45;;;3.33;;
9854;SDS011;4966;48.112;9.282;2023-06-22T01:28:53;13.30;;;3.65;;
9854;SDS011;4966;48.112;9.282;2023-06-22T01:31:21;6.63;;;3.25;;
9854;SDS011;4966;48.112;9.282;2023-06-22T01:33:56;11.02;;;3.50;;
9854;SDS011;4966;48.112;9.282;2023-06-22T01:36:24;8.43;;;3.22;;
9854;SDS011;4966;48.112;9.282;2023-06-22T01:38:50;12.50;;;3.92;;
9854;SDS011;4966;48.112;9.282;2023-06-22T01:41:18;10.90;;;3.40;;
9854;SDS011;4966;48.112;9.282;2023-06-22T01:43:45;11.63;;;3.80;;
9854;SDS011;4966;48.112;9.282;2023-06-22T01:46:10;9.32;;;3.80;;
9854;SDS011;4966;48.112;9.282;2023-06-22T01:48:37;12.38;;;4.05;;
9854;SDS011;4966;48.112;9.282;2023-06-22T01:51:04;8.90;;;3.83;;
9854;SDS011;4966;48.112;9.282;2023-06-22T01:53:29;7.55;;;3.00;;
9854;SDS011;4966;48.112;9.282;2023-06-22T01:55:55;13.32;;;3.75;;
9854;SDS011;4966;48.112;9.282;2023-06-22T01:58:23;12.70;;;4.05;;
9854;SDS011;4966;48.112;9.282;2023-06-22T02:01:10;11.05;;;3.30;;
9854;SDS011;4966;48.112;9.282;2023-06-22T02:03:38;11.55;;;3.15;;
9854;SDS011;4966;48.112;9.282;2023-06-22T02:06:15;7.28;;;3.25;;
9854;SDS011;4966;48.112;9.282;2023-06-22T02:08:47;11.32;;;4.32;;
9854;SDS011;4966;48.112;9.282;2023-06-22T02:11:16;13.77;;;3.30;;
9854;SDS011;4966;48.112;9.282;2023-06-22T02:13:45;13.93;;;4.10;;
9854;SDS011;4966;48.112;9.282;2023-06-22T02:16:11;9.27;;;3.40;;
9854;SDS011;4966;48.112;9.282;2023-06-22T02:18:38;9.45;;;4.55;;
9854;SDS011;4966;48.112;9.282;2023-06-22T02:21:05;7.95;;;3.45;;
9854;SDS011;4966;48.112;9.282;2023-06-22T02:23:31;11.70;;;3.97;;
9854;SDS011;4966;48.112;9.282;2023-06-22T02:25:58;11.02;;;3.90;;
9854;SDS011;4966;48.112;9.282;2023-06-22T02:28:23;8.90;;;3.63;;
9854;SDS011;4966;48.112;9.282;2023-06-22T02:30:48;12.48;;;3.78;;
9854;SDS011;4966;48.112;9.282;2023-06-22T02:33:14;9.13;;;3.17;;
9854;SDS011;4966;48.112;9.282;2023-06-22T02:35:39;9.80;;;3.70;;
9854;SDS011;4966;48.112;9.282;2023-06-22T02:38:04;5.95;;;3.22;;
9854;SDS011;4966;48.112;9.282;2023-06-22T02:40:30;9.90;;;3.53;;
9854;SDS011;4966;48.112;9.282;2023-06-22T02:42:56;9.60;;;3.45;;
9854;SDS011;4966;48.112;9.282;2023-06-22T02:45:27;9.07;;;3.45;;
9854;SDS011;4966;48.112;9.282;2023-06-22T02:47:52;8.68;;;3.65;;
9854;SDS011;4966;48.112;9.282;2023-06-22T02:50:18;8.68;;;3.45;;
9854;SDS011;4966;48.112;9.282;2023-06-22T02:52:43;9.05;;;3.42;;
9854;SDS011;4966;48.112;9.282;2023-06-22T02:55:08;10.52;;;3.58;;
9854;SDS011;4966;48.112;9.282;2023-06-22T02:57:33;13.93;;;4.13;;
9854;SDS011;4966;48.112;9.282;2023-06-22T02:59:59;11.95;;;3.63;;
9854;SDS011;4966;48.112;9.282;2023-06-22T03:02:25;9.85;;;3.60;;
9854;SDS011;4966;48.112;9.282;2023-06-22T03:04:51;6.47;;;3.50;;
9854;SDS011;4966;48.112;9.282;2023-06-22T03:07:18;11.40;;;3.83;;
9854;SDS011;4966;48.112;9.282;2023-06-22T03:09:44;7.85;;;3.80;;
9854;SDS011;4966;48.112;9.282;2023-06-22T03:12:09;8.38;;;3.80;;
9854;SDS011;4966;48.112;9.282;2023-06-22T03:14:34;14.32;;;3.80;;
9854;SDS011;4966;48.112;9.282;2023-06-22T03:17:00;9.60;;;3.58;;
9854;SDS011;4966;48.112;9.282;2023-06-22T03:19:28;8.45;;;3.38;;
9854;SDS011;4966;48.112;9.282;2023-06-22T03:21:54;10.52;;;3.60;;
9854;SDS011;4966;48.112;9.282;2023-06-22T03:24:19;10.50;;;3.95;;
9854;SDS011;4966;48.112;9.282;2023-06-22T03:26:45;13.75;;;3.78;;
9854;SDS011;4966;48.112;9.282;2023-06-22T03:29:11;12.65;;;4.13;;
9854;SDS011;4966;48.112;9.282;2023-06-22T03:31:37;9.15;;;4.00;;
9854;SDS011;4966;48.112;9.282;2023-06-22T03:34:02;9.13;;;3.42;;
9854;SDS011;4966;48.112;9.282;2023-06-22T03:36:27;10.63;;;3.55;;
9854;SDS011;4966;48.112;9.282;2023-06-22T03:38:53;11.15;;;3.90;;
9854;SDS011;4966;48.112;9.282;2023-06-22T03:41:18;9.18;;;3.33;;
9854;SDS011;4966;48.112;9.282;2023-06-22T03:43:44;15.65;;;4.35;;
9854;SDS011;4966;48.112;9.282;2023-06-22T03:46:09;9.95;;;3.40;;
9854;SDS011;4966;48.112;9.282;2023-06-22T03:48:34;10.95;;;3.05;;
9854;SDS011;4966;48.112;9.282;2023-06-22T03:51:01;5.85;;;3.42;;
9854;SDS011;4966;48.112;9.282;2023-06-22T03:53:27;7.30;;;3.60;;
9854;SDS011;4966;48.112;9.282;2023-06-22T03:55:53;12.50;;;3.70;;
9854;SDS011;4966;48.112;9.282;2023-06-22T03:58:19;12.07;;;4.03;;
9854;SDS011;4966;48.112;9.282;2023-06-22T04:00:49;7.65;;;3.72;;
9854;SDS011;4966;48.112;9.282;2023-06-22T04:03:16;9.55;;;3.53;;
9854;SDS011;4966;48.112;9.282;2023-06-22T04:05:45;7.88;;;3.83;;
9854;SDS011;4966;48.112;9.282;2023-06-22T04:08:12;8.98;;;3.78;;
9854;SDS011;4966;48.112;9.282;2023-06-22T04:10:38;8.82;;;2.90;;
9854;SDS011;4966;48.112;9.282;2023-06-22T04:13:03;9.50;;;3.28;;
9854;SDS011;4966;48.112;9.282;2023-06-22T04:15:29;9.63;;;3.45;;
9854;SDS011;4966;48.112;9.282;2023-06-22T04:17:54;9.35;;;3.47;;
9854;SDS011;4966;48.112;9.282;2023-06-22T04:20:20;6.22;;;3.00;;
9854;SDS011;4966;48.112;9.282;2023-06-22T04:22:46;9.70;;;4.25;;
9854;SDS011;4966;48.112;9.282;2023-06-22T04:25:12;13.02;;;3.90;;
9854;SDS011;4966;48.112;9.282;2023-06-22T04:27:37;11.43;;;3.50;;
9854;SDS011;4966;48.112;9.282;2023-06-22T04:30:05;6.72;;;3.28;;
9854;SDS011;4966;48.112;9.282;2023-06-22T04:32:32;7.38;;;3.60;;
9854;SDS011;4966;48.112;9.282;2023-06-22T04:34:58;10.65;;;3.70;;
9854;SDS011;4966;48.112;9.282;2023-06-22T04:37:25;7.93;;;3.25;;
9854;SDS011;4966;48.112;9.282;2023-06-22T04:39:51;10.63;;;3.50;;
9854;SDS011;4966;48.112;9.282;2023-06-22T04:42:16;9.88;;;3.40;;
9854;SDS011;4966;48.112;9.282;2023-06-22T04:44:42;11.43;;;3.63;;
9854;SDS011;4966;48.112;9.282;2023-06-22T04:47:07;7.25;;;3.03;;
9854;SDS011;4966;48.112;9.282;2023-06-22T04:49:34;8.05;;;3.30;;
9854;SDS011;4966;48.112;9.282;2023-06-22T04:52:03;7.78;;;2.95;;
9854;SDS011;4966;48.112;9.282;2023-06-22T04:54:29;13.30;;;3.60;;
9854;SDS011;4966;48.112;9.282;2023-06-22T04:56:58;10.80;;;3.17;;
9854;SDS011;4966;48.112;9.282;2023-06-22T04:59:24;7.80;;;3.33;;
9854;SDS011;4966;48.112;9.282;2023-06-22T05:01:54;8.32;;;3.25;;
9854;SDS011;4966;48.112;9.282;2023-06-22T05:04:20;6.45;;;3.05;;
9854;SDS011;4966;48.112;9.282;2023-06-22T05:06:46;6.70;;;3.28;;
9854;SDS011;4966;48.112;9.282;2023-06-22T05:09:11;11.65;;;3.97;;
9854;SDS011;4966;48.112;9.282;2023-06-22T05:11:37;10.02;;;3.45;;
9854;SDS011;4966;48.112;9.282;2023-06-22T05:14:02;10.38;;;3.92;;
9854;SDS011;4966;48.112;9.282;2023-06-22T05:16:28;11.60;;;3.75;;
9854;SDS011;4966;48.112;9.282;2023-06-22T05:18:54;9.95;;;3.75;;
9854;SDS011;4966;48.112;9.282;2023-06-22T05:21:26;7.50;;;3.58;;
9854;SDS011;4966;48.112;9.282;2023-06-22T05:23:52;10.13;;;4.32;;
9854;SDS011;4966;48.112;9.282;2023-06-22T05:26:19;12.43;;;4.25;;
9854;SDS011;4966;48.112;9.282;2023-06-22T05:28:45;10.40;;;3.78;;
9854;SDS011;4966;48.112;9.282;2023-06-22T05:31:14;9.15;;;4.50;;
9854;SDS011;4966;48.112;9.282;2023-06-22T05:33:41;6.85;;;3.78;;
9854;SDS011;4966;48.112;9.282;2023-06-22T05:36:07;11.98;;;4.25;;
9854;SDS011;4966;48.112;9.282;2023-06-22T05:38:32;7.97;;;3.80;;
9854;SDS011;4966;48.112;9.282;2023-06-22T05:40:58;9.23;;;3.70;;
9854;SDS011;4966;48.112;9.282;2023-06-22T05:43:23;10.68;;;4.10;;
9854;SDS011;4966;48.112;9.282;2023-06-22T05:45:48;7.55;;;3.80;;
9854;SDS011;4966;48.112;9.282;2023-06-22T05:48:14;8.35;;;3.90;;
9854;SDS011;4966;48.112;9.282;2023-06-22T05:50:39;9.77;;;4.22;;
9854;SDS011;4966;48.112;9.282;2023-06-22T05:53:04;8.10;;;3.80;;
9854;SDS011;4966;48.112;9.282;2023-06-22T05:55:31;8.65;;;4.32;;
9854;SDS011;4966;48.112;9.282;2023-06-22T05:57:57;10.10;;;4.13;;
9854;SDS011;4966;48.112;9.282;2023-06-22T06:00:23;10.10;;;3.67;;
9854;SDS011;4966;48.112;9.282;2023-06-22T06:02:49;10.23;;;4.28;;
9854;SDS011;4966;48.112;9.282;2023-06-22T06:05:14;7.72;;;4.15;;
9854;SDS011;4966;48.112;9.282;2023-06-22T06:07:40;8.27;;;3.83;;
9854;SDS011;4966;48.112;9.282;2023-06-22T06:10:10;10.15;;;3.83;;
9854;SDS011;4966;48.112;9.282;2023-06-22T06:12:35;8.00;;;4.70;;
9854;SDS011;4966;48.112;9.282;2023-06-22T06:15:01;9.68;;;4.82;;
9854;SDS011;4966;48.112;9.282;2023-06-22T06:17:27;10.57;;;4.25;;
9854;SDS011;4966;48.112;9.282;2023-06-22T06:19:52;8.13;;;4.20;;
9854;SDS011;4966;48.112;9.282;2023-06-22T06:22:17;12.90;;;4.45;;
9854;SDS011;4966;48.112;9.282;2023-06-22T06:24:44;10.05;;;4.55;;
9854;SDS011;4966;48.112;9.282;2023-06-22T06:27:09;11.40;;;5.00;;
9854;SDS011;4966;48.112;9.282;2023-06-22T06:29:34;8.85;;;4.38;;
9854;SDS011;4966;48.112;9.282;2023-06-22T06:32:00;8.20;;;4.30;;
9854;SDS011;4966;48.112;9.282;2023-06-22T06:34:25;9.77;;;4.60;;
9854;SDS011;4966;48.112;9.282;2023-06-22T06:36:50;11.93;;;4.47;;
9854;SDS011;4966;48.112;9.282;2023-06-22T06:39:16;10.57;;;3.92;;
9854;SDS011;4966;48.112;9.282;2023-06-22T06:41:41;7.72;;;3.63;;
9854;SDS011;4966;48.112;9.282;2023-06-22T06:44:07;11.77;;;4.47;;
9854;SDS011;4966;48.112;9.282;2023-06-22T06:46:32;9.20;;;4.55;;
9854;SDS011;4966;48.112;9.282;2023-06-22T06:48:58;11.77;;;4.50;;
9854;SDS011;4966;48.112;9.282;2023-06-22T06:51:23;8.40;;;4.30;;
9854;SDS011;4966;48.112;9.282;2023-06-22T06:53:49;9.73;;;4.57;;
9854;SDS011;4966;48.112;9.282;2023-06-22T06:56:14;9.32;;;4.32;;
9854;SDS011;4966;48.112;9.282;2023-06-22T06:58:43;14.88;;;4.68;;
9854;SDS011;4966;48.112;9.282;2023-06-22T07:01:10;9.55;;;4.90;;
9854;SDS011;4966;48.112;9.282;2023-06-22T07:03:36;9.40;;;4.90;;
9854;SDS011;4966;48.112;9.282;2023-06-22T07:06:02;11.07;;;5.10;;
9854;SDS011;4966;48.112;9.282;2023-06-22T07:08:27;8.93;;;4.68;;
9854;SDS011;4966;48.112;9.282;2023-06-22T07:10:52;8.60;;;4.25;;
9854;SDS011;4966;48.112;9.282;2023-06-22T07:13:18;10.55;;;5.00;;
9854;SDS011;4966;48.112;9.282;2023-06-22T07:15:43;12.18;;;5.38;;
9854;SDS011;4966;48.112;9.282;2023-06-22T07:18:08;13.50;;;4.68;;
9854;SDS011;4966;48.112;9.282;2023-06-22T07:20:34;9.90;;;4.90;;
9854;SDS011;4966;48.112;9.282;2023-06-22T07:22:59;11.10;;;5.43;;
9854;SDS011;4966;48.112;9.282;2023-06-22T07:25:25;13.23;;;4.60;;
9854;SDS011;4966;48.112;9.282;2023-06-22T07:28:00;9.85;;;5.47;;
9854;SDS011;4966;48.112;9.282;2023-06-22T07:30:27;16.42;;;6.47;;
9854;SDS011;4966;48.112;9.282;2023-06-22T07:32:53;15.13;;;5.57;;
9854;SDS011;4966;48.112;9.282;2023-06-22T07:35:19;11.57;;;5.55;;
9854;SDS011;4966;48.112;9.282;2023-06-22T07:37:44;11.77;;;5.10;;
9854;SDS011;4966;48.112;9.282;2023-06-22T07:40:10;9.93;;;5.00;;
9854;SDS011;4966;48.112;9.282;2023-06-22T07:42:36;13.07;;;5.00;;
9854;SDS011;4966;48.112;9.282;2023-06-22T07:45:02;10.80;;;4.57;;
9854;SDS011;4966;48.112;9.282;2023-06-22T07:47:28;11.70;;;5.40;;
9854;SDS011;4966;48.112;9.282;2023-06-22T07:49:54;11.35;;;4.57;;
9854;SDS011;4966;48.112;9.282;2023-06-22T07:52:22;11.25;;;4.68;;
9854;SDS011;4966;48.112;9.282;2023-06-22T07:54:48;12.35;;;4.40;;
9854;SDS011;4966;48.112;9.282;2023-06-22T07:57:13;12.98;;;4.38;;
9854;SDS011;4966;48.112;9.282;2023-06-22T07:59:38;12.48;;;4.78;;
9854;SDS011;4966;48.112;9.282;2023-06-22T08:02:04;12.52;;;4.45;;
9854;SDS011;4966;48.112;9.282;2023-06-22T08:04:30;12.63;;;5.30;;
9854;SDS011;4966;48.112;9.282;2023-06-22T08:06:56;11.73;;;4.90;;
9854;SDS011;4966;48.112;9.282;2023-06-22T08:09:22;16.35;;;4.72;;
9854;SDS011;4966;48.112;9.282;2023-06-22T08:11:47;14.60;;;5.10;;
9854;SDS011;4966;48.112;9.282;2023-06-22T08:14:13;13.40;;;5.40;;
9854;SDS011;4966;48.112;9.282;2023-06-22T08:16:39;10.52;;;5.57;;
9854;SDS011;4966;48.112;9.282;2023-06-22T08:19:05;15.73;;;5.25;;
9854;SDS011;4966;48.112;9.282;2023-06-22T08:21:31;10.90;;;5.55;;
9854;SDS011;4966;48.112;9.282;2023-06-22T08:23:56;9.57;;;4.80;;
9854;SDS011;4966;48.112;9.282;2023-06-22T08:26:21;9.85;;;4.47;;
9854;SDS011;4966;48.112;9.282;2023-06-22T08:28:47;9.15;;;4.55;;
9854;SDS011;4966;48.112;9.282;2023-06-22T08:31:12;8.07;;;4.70;;
9854;SDS011;4966;48.112;9.282;2023-06-22T08:33:39;10.15;;;4.90;;
9854;SDS011;4966;48.112;9.282;2023-06-22T08:36:04;11.00;;;4.90;;
9854;SDS011;4966;48.112;9.282;2023-06-22T08:38:31;9.15;;;5.10;;
9854;SDS011;4966;48.112;9.282;2023-06-22T08:40:56;17.85;;;5.45;;
9854;SDS011;4966;48.112;9.282;2023-06-22T08:43:22;13.48;;;5.47;;
9854;SDS011;4966;48.112;9.282;2023-06-22T08:45:47;11.00;;;4.63;;
9854;SDS011;4966;48.112;9.282;2023-06-22T08:48:12;11.18;;;4.63;;
9854;SDS011;4966;48.112;9.282;2023-06-22T08:50:38;10.90;;;4.35;;
9854;SDS011;4966;48.112;9.282;2023-06-22T08:53:05;9.13;;;4.65;;
9854;SDS011;4966;48.112;9.282;2023-06-22T08:55:31;15.00;;;4.75;;
9854;SDS011;4966;48.112;9.282;2023-06-22T08:57:56;10.68;;;5.10;;
9854;SDS011;4966;48.112;9.282;2023-06-22T09:00:21;10.38;;;4.13;;
9854;SDS011;4966;48.112;9.282;2023-06-22T09:02:47;11.48;;;4.72;;
9854;SDS011;4966;48.112;9.282;2023-06-22T09:05:13;13.35;;;4.53;;
9854;SDS011;4966;48.112;9.282;2023-06-22T09:07:38;11.48;;;5.18;;
9854;SDS011;4966;48.112;9.282;2023-06-22T09:10:04;12.65;;;5.15;;
9854;SDS011;4966;48.112;9.282;2023-06-22T09:12:30;8.80;;;4.22;;
9854;SDS011;4966;48.112;9.282;2023-06-22T09:14:56;9.30;;;4.43;;
9854;SDS011;4966;48.112;9.282;2023-06-22T09:17:21;11.93;;;4.63;;
9854;SDS011;4966;48.112;9.282;2023-06-22T09:19:47;8.25;;;3.58;;
9854;SDS011;4966;48.112;9.282;2023-06-22T09:22:13;6.93;;;3.97;;
9854;SDS011;4966;48.112;9.282;2023-06-22T09:24:39;10.00;;;4.75;;
9854;SDS011;4966;48.112;9.282;2023-06-22T09:27:04;8.95;;;4.10;;
9854;SDS011;4966;48.112;9.282;2023-06-22T09:29:30;13.43;;;4.30;;
9854;SDS011;4966;48.112;9.282;2023-06-22T09:31:58;11.73;;;5.00;;
9854;SDS011;4966;48.112;9.282;2023-06-22T09:34:24;8.38;;;4.60;;
9854;SDS011;4966;48.112;9.282;2023-06-22T09:36:49;12.95;;;4.60;;
9854;SDS011;4966;48.112;9.282;2023-06-22T09:39:14;10.55;;;3.92;;
9854;SDS011;4966;48.112;9.282;2023-06-22T09:41:39;9.70;;;4.30;;
9854;SDS011;4966;48.112;9.282;2023-06-22T09:44:05;9.27;;;4.68;;
9854;SDS011;4966;48.112;9.282;2023-06-22T09:46:30;7.85;;;3.60;;
9854;SDS011;4966;48.112;9.282;2023-06-22T09:48:55;10.63;;;4.07;;
9854;SDS011;4966;48.112;9.282;2023-06-22T09:51:21;10.82;;;3.92;;
9854;SDS011;4966;48.112;9.282;2023-06-22T09:53:48;15.68;;;4.25;;
9854;SDS011;4966;48.112;9.282;2023-06-22T09:56:14;11.48;;;4.15;;
9854;SDS011;4966;48.112;9.282;2023-06-22T09:58:44;14.77;;;4.15;;
9854;SDS011;4966;48.112;9.282;2023-06-22T10:01:11;11.65;;;4.05;;
9854;SDS011;4966;48.112;9.282;2023-06-22T10:03:36;12.23;;;4.00;;
9854;SDS011;4966;48.112;9.282;2023-06-22T10:06:02;18.10;;;4.15;;
9854;SDS011;4966;48.112;9.282;2023-06-22T10:08:28;9.70;;;4.10;;
9854;SDS011;4966;48.112;9.282;2023-06-22T10:10:53;9.88;;;4.07;;
9854;SDS011;4966;48.112;9.282;2023-06-22T10:13:19;12.63;;;4.00;;
9854;SDS011;4966;48.112;9.282;2023-06-22T10:15:44;9.63;;;3.60;;
9854;SDS011;4966;48.112;9.282;2023-06-22T10:18:14;8.52;;;3.45;;
9854;SDS011;4966;48.112;9.282;2023-06-22T10:20:41;9.93;;;3.63;;
9854;SDS011;4966;48.112;9.282;2023-06-22T10:23:06;9.35;;;3.83;;
9854;SDS011;4966;48.112;9.282;2023-06-22T10:25:31;9.93;;;3.60;;
9854;SDS011;4966;48.112;9.282;2023-06-22T10:27:57;13.48;;;3.92;;
9854;SDS011;4966;48.112;9.282;2023-06-22T10:30:22;10.27;;;3.83;;
9854;SDS011;4966;48.112;9.282;2023-06-22T10:32:48;11.57;;;3.92;;
9854;SDS011;4966;48.112;9.282;2023-06-22T10:35:14;13.50;;;4.47;;
9854;SDS011;4966;48.112;9.282;2023-06-22T10:37:44;13.55;;;4.63;;
9854;SDS011;4966;48.112;9.282;2023-06-22T10:40:13;11.13;;;4.07;;
9854;SDS011;4966;48.112;9.282;2023-06-22T10:42:40;14.73;;;4.82;;
9854;SDS011;4966;48.112;9.282;2023-06-22T10:45:06;10.77;;;4.35;;
9854;SDS011;4966;48.112;9.282;2023-06-22T10:47:33;10.88;;;4.72;;
9854;SDS011;4966;48.112;9.282;2023-06-22T10:49:58;14.38;;;5.03;;
9854;SDS011;4966;48.112;9.282;2023-06-22T10:52:24;8.80;;;4.35;;
9854;SDS011;4966;48.112;9.282;2023-06-22T10:54:49;7.68;;;4.13;;
9854;SDS011;4966;48.112;9.282;2023-06-22T10:57:14;13.23;;;5.32;;
9854;SDS011;4966;48.112;9.282;2023-06-22T10:59:40;13.27;;;5.07;;
9854;SDS011;4966;48.112;9.282;2023-06-22T11:02:05;10.07;;;4.15;;
9854;SDS011;4966;48.112;9.282;2023-06-22T11:04:30;9.75;;;4.63;;
9854;SDS011;4966;48.112;9.282;2023-06-22T11:06:56;11.10;;;4.80;;
9854;SDS011;4966;48.112;9.282;2023-06-22T11:09:21;10.60;;;4.15;;
9854;SDS011;4966;48.112;9.282;2023-06-22T11:11:47;12.45;;;5.53;;
9854;SDS011;4966;48.112;9.282;2023-06-22T11:14:15;9.15;;;4.70;;
9854;SDS011;4966;48.112;9.282;2023-06-22T11:16:41;12.70;;;4.85;;
9854;SDS011;4966;48.112;9.282;2023-06-22T11:19:07;11.75;;;4.25;;
9854;SDS011;4966;48.112;9.282;2023-06-22T11:21:32;10.88;;;4.25;;
9854;SDS011;4966;48.112;9.282;2023-06-22T11:23:58;12.25;;;4.35;;
9854;SDS011;4966;48.112;9.282;2023-06-22T11:26:24;15.32;;;4.43;;
9854;SDS011;4966;48.112;9.282;2023-06-22T11:28:52;9.82;;;4.32;;
9854;SDS011;4966;48.112;9.282;2023-06-22T11:31:17;14.68;;;4.50;;
9854;SDS011;4966;48.112;9.282;2023-06-22T11:33:42;10.70;;;4.05;;
9854;SDS011;4966;48.112;9.282;2023-06-22T11:36:09;14.07;;;4.80;;
9854;SDS011;4966;48.112;9.282;2023-06-22T11:38:35;12.55;;;4.53;;
9854;SDS011;4966;48.112;9.282;2023-06-22T11:41:04;13.63;;;4.18;;
9854;SDS011;4966;48.112;9.282;2023-06-22T11:43:30;15.00;;;4.80;;
9854;SDS011;4966;48.112;9.282;2023-06-22T11:45:55;10.98;;;4.75;;
9854;SDS011;4966;48.112;9.282;2023-06-22T11:48:22;12.57;;;4.30;;
9854;SDS011;4966;48.112;9.282;2023-06-22T11:50:48;10.55;;;4.25;;
9854;SDS011;4966;48.112;9.282;2023-06-22T11:53:14;14.80;;;4.82;;
9854;SDS011;4966;48.112;9.282;2023-06-22T11:55:41;11.38;;;4.35;;
9854;SDS011;4966;48.112;9.282;2023-06-22T11:58:06;12.88;;;4.75;;
9854;SDS011;4966;48.112;9.282;2023-06-22T12:00:33;14.57;;;4.75;;
9854;SDS011;4966;48.112;9.282;2023-06-22T12:02:58;14.13;;;4.72;;
9854;SDS011;4966;48.112;9.282;2023-06-22T12:05:23;12.50;;;4.38;;
9854;SDS011;4966;48.112;9.282;2023-06-22T12:07:49;15.48;;;4.22;;
9854;SDS011;4966;48.112;9.282;2023-06-22T12:10:15;13.80;;;4.45;;
9854;SDS011;4966;48.112;9.282;2023-06-22T12:12:41;9.32;;;4.25;;
9854;SDS011;4966;48.112;9.282;2023-06-22T12:15:07;13.13;;;4.90;;
9854;SDS011;4966;48.112;9.282;2023-06-22T12:17:34;10.73;;;4.07;;
9854;SDS011;4966;48.112;9.282;2023-06-22T12:19:59;12.35;;;4.30;;
9854;SDS011;4966;48.112;9.282;2023-06-22T12:22:25;19.73;;;4.57;;
9854;SDS011;4966;48.112;9.282;2023-06-22T12:24:50;13.02;;;4.18;;
9854;SDS011;4966;48.112;9.282;2023-06-22T12:27:16;16.92;;;4.68;;
9854;SDS011;4966;48.112;9.282;2023-06-22T12:29:43;13.20;;;3.97;;
9854;SDS011;4966;48.112;9.282;2023-06-22T12:32:10;12.95;;;4.35;;
9854;SDS011;4966;48.112;9.282;2023-06-22T12:34:38;14.23;;;4.15;;
9854;SDS011;4966;48.112;9.282;2023-06-22T12:37:03;13.18;;;3.97;;
9854;SDS011;4966;48.112;9.282;2023-06-22T12:39:30;13.52;;;4.18;;
9854;SDS011;4966;48.112;9.282;2023-06-22T12:41:56;9.75;;;3.97;;
9854;SDS011;4966;48.112;9.282;2023-06-22T12:44:21;12.95;;;4.13;;
9854;SDS011;4966;48.112;9.282;2023-06-22T12:46:46;13.88;;;3.65;;
9854;SDS011;4966;48.112;9.282;2023-06-22T12:49:12;13.10;;;3.85;;
9854;SDS011;4966;48.112;9.282;2023-06-22T12:51:40;13.73;;;3.90;;
9854;SDS011;4966;48.112;9.282;2023-06-22T12:54:07;9.68;;;3.40;;
9854;SDS011;4966;48.112;9.282;2023-06-22T12:56:32;12.50;;;3.83;;
9854;SDS011;4966;48.112;9.282;2023-06-22T12:58:58;10.40;;;4.32;;
9854;SDS011;4966;48.112;9.282;2023-06-22T13:01:24;8.85;;;3.58;;
9854;SDS011;4966;48.112;9.282;2023-06-22T13:03:50;9.05;;;4.13;;
9854;SDS011;4966;48.112;9.282;2023-06-22T13:06:15;12.68;;;4.57;;
9854;SDS011;4966;48.112;9.282;2023-06-22T13:08:40;13.57;;;4.38;;
9854;SDS011;4966;48.112;9.282;2023-06-22T13:11:05;12.77;;;4.88;;
9854;SDS011;4966;48.112;9.282;2023-06-22T13:13:31;13.23;;;4.78;;
9854;SDS011;4966;48.112;9.282;2023-06-22T13:15:56;12.90;;;4.13;;
9854;SDS011;4966;48.112;9.282;2023-06-22T13:18:21;15.20;;;5.00;;
9854;SDS011;4966;48.112;9.282;2023-06-22T13:20:47;9.00;;;4.00;;
9854;SDS011;4966;48.112;9.282;2023-06-22T13:23:12;17.98;;;4.38;;
9854;SDS011;4966;48.112;9.282;2023-06-22T13:25:38;12.90;;;4.30;;
9854;SDS011;4966;48.112;9.282;2023-06-22T13:28:04;12.15;;;4.57;;
9854;SDS011;4966;48.112;9.282;2023-06-22T13:30:29;12.07;;;4.43;;
9854;SDS011;4966;48.112;9.282;2023-06-22T13:32:56;15.27;;;4.32;;
9854;SDS011;4966;48.112;9.282;2023-06-22T13:35:22;14.02;;;4.45;;
9854;SDS011;4966;48.112;9.282;2023-06-22T13:37:47;8.70;;;4.57;;
9854;SDS011;4966;48.112;9.282;2023-06-22T13:40:12;12.10;;;5.03;;
9854;SDS011;4966;48.112;9.282;2023-06-22T13:42:38;15.15;;;4.70;;
9854;SDS011;4966;48.112;9.282;2023-06-22T13:45:03;12.13;;;4.53;;
9854;SDS011;4966;48.112;9.282;2023-06-22T13:47:30;16.15;;;4.63;;
9854;SDS011;4966;48.112;9.282;2023-06-22T13:49:55;13.23;;;4.88;;
9854;SDS011;4966;48.112;9.282;2023-06-22T13:52:22;14.50;;;4.43;;
9854;SDS011;4966;48.112;9.282;2023-06-22T13:54:47;10.90;;;4.60;;
9854;SDS011;4966;48.112;9.282;2023-06-22T13:57:13;15.57;;;4.82;;
9854;SDS011;4966;48.112;9.282;2023-06-22T13:59:38;17.50;;;4.80;;
9854;SDS011;4966;48.112;9.282;2023-06-22T14:02:04;14.32;;;4.78;;
9854;SDS011;4966;48.112;9.282;2023-06-22T14:04:29;11.73;;;4.47;;
9854;SDS011;4966;48.112;9.282;2023-06-22T14:06:55;14.40;;;4.53;;
9854;SDS011;4966;48.112;9.282;2023-06-22T14:09:21;14.68;;;4.50;;
9854;SDS011;4966;48.112;9.282;2023-06-22T14:11:46;16.92;;;4.32;;
9854;SDS011;4966;48.112;9.282;2023-06-22T14:14:11;18.30;;;4.90;;
9854;SDS011;4966;48.112;9.282;2023-06-22T14:16:36;9.90;;;3.50;;
9854;SDS011;4966;48.112;9.282;2023-06-22T14:19:02;7.32;;;2.70;;
9854;SDS011;4966;48.112;9.282;2023-06-22T14:21:27;13.35;;;3.47;;
9854;SDS011;4966;48.112;9.282;2023-06-22T14:23:52;10.10;;;3.10;;
9854;SDS011;4966;48.112;9.282;2023-06-22T14:26:18;9.88;;;3.08;;
9854;SDS011;4966;48.112;9.282;2023-06-22T14:28:47;11.10;;;2.85;;
9854;SDS011;4966;48.112;9.282;2023-06-22T14:31:14;9.95;;;2.65;;
9854;SDS011;4966;48.112;9.282;2023-06-22T14:33:39;10.05;;;2.67;;
9854;SDS011;4966;48.112;9.282;2023-06-22T14:36:05;11.55;;;2.85;;
9854;SDS011;4966;48.112;9.282;2023-06-22T14:38:30;8.02;;;2.47;;
9854;SDS011;4966;48.112;9.282;2023-06-22T14:40:56;11.90;;;2.55;;
9854;SDS011;4966;48.112;9.282;2023-06-22T14:43:21;10.82;;;2.75;;
9854;SDS011;4966;48.112;9.282;2023-06-22T14:45:46;9.93;;;2.50;;
9854;SDS011;4966;48.112;9.282;2023-06-22T14:48:12;10.30;;;2.40;;
9854;SDS011;4966;48.112;9.282;2023-06-22T14:50:37;8.90;;;2.55;;
9854;SDS011;4966;48.112;9.282;2023-06-22T14:53:02;9.85;;;2.28;;
9854;SDS011;4966;48.112;9.282;2023-06-22T14:55:28;12.13;;;2.90;;
9854;SDS011;4966;48.112;9.282;2023-06-22T14:57:53;6.55;;;2.13;;
9854;SDS011;4966;48.112;9.282;2023-06-22T15:00:18;11.68;;;2.75;;
9854;SDS011;4966;48.112;9.282;2023-06-22T15:02:44;8.25;;;2.50;;
9854;SDS011;4966;48.112;9.282;2023-06-22T15:05:09;6.97;;;2.35;;